sensor_id;sensor_type;location;lat;lon;timestamp;pressure;altitude;pressure_sealevel;temperature;humidity
36378;BME280;22402;42.746;23.606;2023-03-25T00:00:26;93200.63;;;10.54;63.83
36378;BME280;22402;42.746;23.606;2023-03-25T00:02:51;93196.81;;;10.48;63.68
36378;BME280;22402;42.746;23.606;2023-03-25T00:05:17;93195.50;;;10.44;64.11
36378;BME280;22402;42.746;23.606;2023-03-25T00:07:43;93201.81;;;10.42;64.26
36378;BME280;22402;42.746;23.606;2023-03-25T00:10:08;93199.13;;;10.34;65.54
36378;BME280;22402;42.746;23.606;2023-03-25T00:12:34;93202.16;;;10.29;64.82
36378;BME280;22402;42.746;23.606;2023-03-25T00:14:59;93201.63;;;10.25;65.65
36378;BME280;22402;42.746;23.606;2023-03-25T00:17:25;93201.28;;;10.20;65.77
36378;BME280;22402;42.746;23.606;2023-03-25T00:19:50;93202.50;;;10.16;66.30
36378;BME280;22402;42.746;23.606;2023-03-25T00:22:16;93202.00;;;10.13;66.07
36378;BME280;22402;42.746;23.606;2023-03-25T00:24:42;93191.88;;;10.10;66.44
36378;BME280;22402;42.746;23.606;2023-03-25T00:27:07;93187.78;;;10.07;65.98
36378;BME280;22402;42.746;23.606;2023-03-25T00:29:32;93186.44;;;10.03;67.17
36378;BME280;22402;42.746;23.606;2023-03-25T00:31:57;93182.47;;;9.99;66.99
36378;BME280;22402;42.746;23.606;2023-03-25T00:34:22;93179.34;;;9.95;66.50
36378;BME280;22402;42.746;23.606;2023-03-25T00:36:48;93175.25;;;9.93;67.15
36378;BME280;22402;42.746;23.606;2023-03-25T00:39:13;93167.59;;;9.91;67.08
36378;BME280;22402;42.746;23.606;2023-03-25T00:41:38;93173.91;;;9.89;67.41
36378;BME280;22402;42.746;23.606;2023-03-25T00:44:03;93169.00;;;9.86;67.58
36378;BME280;22402;42.746;23.606;2023-03-25T00:46:30;93170.28;;;9.81;67.82
36378;BME280;22402;42.746;23.606;2023-03-25T00:48:56;93166.97;;;9.79;67.78
36378;BME280;22402;42.746;23.606;2023-03-25T00:51:22;93168.38;;;9.74;67.45
36378;BME280;22402;42.746;23.606;2023-03-25T00:53:51;93167.19;;;9.68;67.26
36378;BME280;22402;42.746;23.606;2023-03-25T00:56:17;93167.47;;;9.65;67.23
36378;BME280;22402;42.746;23.606;2023-03-25T00:58:43;93164.19;;;9.63;67.47
36378;BME280;22402;42.746;23.606;2023-03-25T01:01:12;93159.94;;;9.62;67.57
36378;BME280;22402;42.746;23.606;2023-03-25T01:03:38;93160.09;;;9.61;67.67
36378;BME280;22402;42.746;23.606;2023-03-25T01:06:13;93159.56;;;9.57;67.66
36378;BME280;22402;42.746;23.606;2023-03-25T01:08:40;93156.59;;;9.52;67.76
36378;BME280;22402;42.746;23.606;2023-03-25T01:11:13;93141.53;;;9.46;68.52
36378;BME280;22402;42.746;23.606;2023-03-25T01:13:40;93149.78;;;9.41;69.05
36378;BME280;22402;42.746;23.606;2023-03-25T01:16:06;93145.97;;;9.35;69.42
36378;BME280;22402;42.746;23.606;2023-03-25T01:18:31;93137.78;;;9.30;68.88
36378;BME280;22402;42.746;23.606;2023-03-25T01:20:56;93139.03;;;9.26;69.07
36378;BME280;22402;42.746;23.606;2023-03-25T01:23:21;93135.09;;;9.22;69.40
36378;BME280;22402;42.746;23.606;2023-03-25T01:25:47;93131.81;;;9.20;69.69
36378;BME280;22402;42.746;23.606;2023-03-25T01:28:12;93130.19;;;9.19;69.29
36378;BME280;22402;42.746;23.606;2023-03-25T01:30:37;93132.22;;;9.16;70.09
36378;BME280;22402;42.746;23.606;2023-03-25T01:33:02;93125.53;;;9.13;70.04
36378;BME280;22402;42.746;23.606;2023-03-25T01:35:28;93127.47;;;9.11;70.36
36378;BME280;22402;42.746;23.606;2023-03-25T01:37:53;93123.22;;;9.10;69.82
36378;BME280;22402;42.746;23.606;2023-03-25T01:40:19;93112.16;;;9.08;70.53
36378;BME280;22402;42.746;23.606;2023-03-25T01:42:45;93101.06;;;9.06;70.10
36378;BME280;22402;42.746;23.606;2023-03-25T01:45:12;93104.47;;;9.06;70.05
36378;BME280;22402;42.746;23.606;2023-03-25T01:47:37;93096.84;;;9.05;70.42
36378;BME280;22402;42.746;23.606;2023-03-25T01:50:03;93102.31;;;9.02;70.37
36378;BME280;22402;42.746;23.606;2023-03-25T01:52:28;93099.84;;;9.00;70.60
36378;BME280;22402;42.746;23.606;2023-03-25T01:54:54;93103.44;;;8.99;70.62
36378;BME280;22402;42.746;23.606;2023-03-25T01:57:19;93106.16;;;8.98;71.07
36378;BME280;22402;42.746;23.606;2023-03-25T01:59:46;93099.63;;;8.94;71.17
36378;BME280;22402;42.746;23.606;2023-03-25T02:02:11;93098.66;;;8.95;71.20
36378;BME280;22402;42.746;23.606;2023-03-25T02:07:03;93104.13;;;8.92;70.94
36378;BME280;22402;42.746;23.606;2023-03-25T02:09:28;93100.19;;;8.87;71.72
36378;BME280;22402;42.746;23.606;2023-03-25T02:11:53;93103.06;;;8.84;71.64
36378;BME280;22402;42.746;23.606;2023-03-25T02:14:20;93103.06;;;8.84;71.77
36378;BME280;22402;42.746;23.606;2023-03-25T02:16:48;93103.19;;;8.83;71.60
36378;BME280;22402;42.746;23.606;2023-03-25T02:21:59;93092.28;;;8.79;71.75
36378;BME280;22402;42.746;23.606;2023-03-25T02:24:48;93094.19;;;8.77;71.50
36378;BME280;22402;42.746;23.606;2023-03-25T02:35:32;93090.94;;;8.65;73.28
36378;BME280;22402;42.746;23.606;2023-03-25T02:38:08;93083.31;;;8.64;72.92
36378;BME280;22402;42.746;23.606;2023-03-25T02:40:50;93095.06;;;8.58;73.11
36378;BME280;22402;42.746;23.606;2023-03-25T02:43:24;93091.25;;;8.53;73.90
36378;BME280;22402;42.746;23.606;2023-03-25T02:51:10;93102.22;;;8.47;74.10
36378;BME280;22402;42.746;23.606;2023-03-25T02:53:37;93090.19;;;8.46;73.85
36378;BME280;22402;42.746;23.606;2023-03-25T02:56:05;93090.47;;;8.42;74.22
36378;BME280;22402;42.746;23.606;2023-03-25T02:58:31;93087.19;;;8.40;74.29
36378;BME280;22402;42.746;23.606;2023-03-25T03:00:56;93084.75;;;8.39;74.34
36378;BME280;22402;42.746;23.606;2023-03-25T03:03:21;93081.41;;;8.37;74.22
36378;BME280;22402;42.746;23.606;2023-03-25T03:05:49;93076.22;;;8.37;74.30
36378;BME280;22402;42.746;23.606;2023-03-25T03:10:47;93070.34;;;8.35;73.75
36378;BME280;22402;42.746;23.606;2023-03-25T03:23:05;93072.56;;;8.20;74.89
36378;BME280;22402;42.746;23.606;2023-03-25T03:25:35;93075.44;;;8.17;75.40
36378;BME280;22402;42.746;23.606;2023-03-25T03:28:15;93070.50;;;8.14;75.38
36378;BME280;22402;42.746;23.606;2023-03-25T03:30:45;93069.16;;;8.10;75.69
36378;BME280;22402;42.746;23.606;2023-03-25T03:33:29;93068.75;;;8.05;75.97
36378;BME280;22402;42.746;23.606;2023-03-25T03:35:57;93065.63;;;8.01;76.04
36378;BME280;22402;42.746;23.606;2023-03-25T03:38:25;93065.09;;;7.97;76.57
36378;BME280;22402;42.746;23.606;2023-03-25T03:40:53;93076.56;;;7.95;76.76
36378;BME280;22402;42.746;23.606;2023-03-25T03:44:03;93076.28;;;7.88;77.37
36378;BME280;22402;42.746;23.606;2023-03-25T03:46:12;93077.38;;;7.86;77.18
36378;BME280;22402;42.746;23.606;2023-03-25T03:48:40;93069.72;;;7.84;76.88
36378;BME280;22402;42.746;23.606;2023-03-25T03:51:11;93071.63;;;7.82;76.71
36378;BME280;22402;42.746;23.606;2023-03-25T03:53:41;93069.88;;;7.83;77.10
36378;BME280;22402;42.746;23.606;2023-03-25T03:56:09;93073.56;;;7.80;77.51
36378;BME280;22402;42.746;23.606;2023-03-25T03:58:39;93071.78;;;7.81;77.21
36378;BME280;22402;42.746;23.606;2023-03-25T04:03:38;93070.97;;;7.80;77.12
36378;BME280;22402;42.746;23.606;2023-03-25T04:06:08;93069.19;;;7.81;77.13
36378;BME280;22402;42.746;23.606;2023-03-25T04:08:36;93073.56;;;7.80;77.14
36378;BME280;22402;42.746;23.606;2023-03-25T04:11:04;93068.38;;;7.80;77.00
36378;BME280;22402;42.746;23.606;2023-03-25T04:13:32;93077.09;;;7.79;77.23
36378;BME280;22402;42.746;23.606;2023-03-25T04:15:58;93077.94;;;7.80;77.04
36378;BME280;22402;42.746;23.606;2023-03-25T04:18:24;93085.03;;;7.78;77.28
36378;BME280;22402;42.746;23.606;2023-03-25T04:20:49;93079.97;;;7.76;77.00
36378;BME280;22402;42.746;23.606;2023-03-25T04:23:14;93087.75;;;7.76;77.15
36378;BME280;22402;42.746;23.606;2023-03-25T04:25:39;93085.28;;;7.74;77.02
36378;BME280;22402;42.746;23.606;2023-03-25T04:28:04;93088.00;;;7.73;76.99
36378;BME280;22402;42.746;23.606;2023-03-25T04:30:29;93089.94;;;7.71;77.19
36378;BME280;22402;42.746;23.606;2023-03-25T04:32:55;93094.31;;;7.70;77.41
36378;BME280;22402;42.746;23.606;2023-03-25T04:35:20;93091.03;;;7.68;77.22
36378;BME280;22402;42.746;23.606;2023-03-25T04:37:45;93092.81;;;7.68;77.35
36378;BME280;22402;42.746;23.606;2023-03-25T04:40:11;93094.72;;;7.66;77.75
36378;BME280;22402;42.746;23.606;2023-03-25T04:42:36;93090.50;;;7.65;77.88
36378;BME280;22402;42.746;23.606;2023-03-25T04:45:04;93094.97;;;7.63;78.30
36378;BME280;22402;42.746;23.606;2023-03-25T04:47:30;93105.38;;;7.63;78.53
36378;BME280;22402;42.746;23.606;2023-03-25T04:49:55;93094.28;;;7.61;78.68
36378;BME280;22402;42.746;23.606;2023-03-25T04:52:20;93088.97;;;7.62;78.75
36378;BME280;22402;42.746;23.606;2023-03-25T04:54:45;93090.50;;;7.65;78.70
36378;BME280;22402;42.746;23.606;2023-03-25T04:57:11;93093.75;;;7.67;78.97
36378;BME280;22402;42.746;23.606;2023-03-25T04:59:36;93100.31;;;7.71;78.80
36378;BME280;22402;42.746;23.606;2023-03-25T05:02:02;93098.28;;;7.74;78.85
36378;BME280;22402;42.746;23.606;2023-03-25T05:04:28;93106.31;;;7.81;79.33
36378;BME280;22402;42.746;23.606;2023-03-25T05:06:53;93104.84;;;7.88;79.77
36378;BME280;22402;42.746;23.606;2023-03-25T05:09:19;93103.34;;;7.95;79.90
36378;BME280;22402;42.746;23.606;2023-03-25T05:11:45;93100.88;;;8.04;79.62
36378;BME280;22402;42.746;23.606;2023-03-25T05:14:11;93107.16;;;8.11;79.33
36378;BME280;22402;42.746;23.606;2023-03-25T05:16:36;93098.69;;;8.18;79.81
36378;BME280;22402;42.746;23.606;2023-03-25T05:19:01;93104.81;;;8.27;79.58
36378;BME280;22402;42.746;23.606;2023-03-25T05:21:27;93101.66;;;8.33;79.44
36378;BME280;22402;42.746;23.606;2023-03-25T05:23:52;93092.78;;;8.46;79.29
36378;BME280;22402;42.746;23.606;2023-03-25T05:26:17;93102.19;;;8.56;78.84
36378;BME280;22402;42.746;23.606;2023-03-25T05:28:42;93098.59;;;8.67;78.60
36378;BME280;22402;42.746;23.606;2023-03-25T05:31:07;93104.31;;;8.80;78.04
36378;BME280;22402;42.746;23.606;2023-03-25T05:33:33;93102.34;;;8.92;77.96
36378;BME280;22402;42.746;23.606;2023-03-25T05:35:59;93102.16;;;9.03;77.56
36378;BME280;22402;42.746;23.606;2023-03-25T05:38:24;93095.69;;;9.17;76.99
36378;BME280;22402;42.746;23.606;2023-03-25T05:40:49;93097.56;;;9.25;76.33
36378;BME280;22402;42.746;23.606;2023-03-25T05:43:15;93106.13;;;9.35;76.43
36378;BME280;22402;42.746;23.606;2023-03-25T05:45:40;93099.91;;;9.46;75.18
36378;BME280;22402;42.746;23.606;2023-03-25T05:48:06;93105.06;;;9.55;75.73
36378;BME280;22402;42.746;23.606;2023-03-25T05:50:31;93102.41;;;9.65;74.90
36378;BME280;22402;42.746;23.606;2023-03-25T05:52:56;93097.81;;;9.77;75.97
36378;BME280;22402;42.746;23.606;2023-03-25T05:55:22;93092.50;;;9.87;76.09
36378;BME280;22402;42.746;23.606;2023-03-25T05:57:47;93091.63;;;9.96;76.00
36378;BME280;22402;42.746;23.606;2023-03-25T06:00:13;93101.97;;;10.06;75.48
36378;BME280;22402;42.746;23.606;2023-03-25T06:02:39;93102.72;;;10.16;75.92
36378;BME280;22402;42.746;23.606;2023-03-25T06:05:04;93107.72;;;10.27;76.37
36378;BME280;22402;42.746;23.606;2023-03-25T06:07:30;93098.03;;;10.37;76.17
36378;BME280;22402;42.746;23.606;2023-03-25T06:09:55;93096.16;;;10.47;75.71
36378;BME280;22402;42.746;23.606;2023-03-25T06:12:21;93099.94;;;10.53;75.48
36378;BME280;22402;42.746;23.606;2023-03-25T06:14:47;93100.66;;;10.63;75.58
36378;BME280;22402;42.746;23.606;2023-03-25T06:17:12;93100.53;;;10.73;74.82
36378;BME280;22402;42.746;23.606;2023-03-25T06:19:38;93101.59;;;10.80;73.88
36378;BME280;22402;42.746;23.606;2023-03-25T06:22:04;93105.38;;;10.86;73.24
36378;BME280;22402;42.746;23.606;2023-03-25T06:24:29;93111.28;;;10.96;72.90
36378;BME280;22402;42.746;23.606;2023-03-25T06:26:54;93117.00;;;11.00;73.29
36378;BME280;22402;42.746;23.606;2023-03-25T06:29:19;93110.03;;;11.08;73.03
36378;BME280;22402;42.746;23.606;2023-03-25T06:31:45;93105.53;;;11.18;73.08
36378;BME280;22402;42.746;23.606;2023-03-25T06:34:10;93111.44;;;11.29;72.10
36378;BME280;22402;42.746;23.606;2023-03-25T06:36:35;93109.19;;;11.34;70.55
36378;BME280;22402;42.746;23.606;2023-03-25T06:39:00;93117.34;;;11.39;70.83
36378;BME280;22402;42.746;23.606;2023-03-25T06:41:25;93118.19;;;11.48;71.62
36378;BME280;22402;42.746;23.606;2023-03-25T06:43:51;93122.31;;;11.58;72.10
36378;BME280;22402;42.746;23.606;2023-03-25T06:46:16;93120.25;;;11.70;71.89
36378;BME280;22402;42.746;23.606;2023-03-25T06:48:41;93114.06;;;11.79;71.42
36378;BME280;22402;42.746;23.606;2023-03-25T06:51:06;93120.31;;;11.86;71.19
36378;BME280;22402;42.746;23.606;2023-03-25T06:53:32;93114.44;;;11.93;70.18
36378;BME280;22402;42.746;23.606;2023-03-25T06:55:57;93113.31;;;11.95;70.08
36378;BME280;22402;42.746;23.606;2023-03-25T06:58:22;93108.41;;;12.00;70.73
36378;BME280;22402;42.746;23.606;2023-03-25T07:00:54;93109.41;;;12.07;71.02
36378;BME280;22402;42.746;23.606;2023-03-25T07:03:19;93106.50;;;12.11;69.29
36378;BME280;22402;42.746;23.606;2023-03-25T07:05:46;93111.41;;;12.14;69.67
36378;BME280;22402;42.746;23.606;2023-03-25T07:08:11;93108.94;;;12.20;69.63
36378;BME280;22402;42.746;23.606;2023-03-25T07:10:36;93113.34;;;12.28;69.88
36378;BME280;22402;42.746;23.606;2023-03-25T07:13:01;93105.03;;;12.32;69.10
36378;BME280;22402;42.746;23.606;2023-03-25T07:15:27;93104.53;;;12.37;68.84
36378;BME280;22402;42.746;23.606;2023-03-25T07:17:52;93101.59;;;12.40;69.07
36378;BME280;22402;42.746;23.606;2023-03-25T07:20:17;93109.75;;;12.45;69.06
36378;BME280;22402;42.746;23.606;2023-03-25T07:22:43;93108.47;;;12.49;68.68
36378;BME280;22402;42.746;23.606;2023-03-25T07:25:08;93113.53;;;12.59;68.76
36378;BME280;22402;42.746;23.606;2023-03-25T07:27:33;93115.63;;;12.72;68.55
36378;BME280;22402;42.746;23.606;2023-03-25T07:29:59;93108.59;;;12.81;67.89
36378;BME280;22402;42.746;23.606;2023-03-25T07:32:24;93109.72;;;12.94;68.19
36378;BME280;22402;42.746;23.606;2023-03-25T07:34:49;93110.00;;;13.08;67.24
36378;BME280;22402;42.746;23.606;2023-03-25T07:37:14;93099.00;;;13.20;66.73
36378;BME280;22402;42.746;23.606;2023-03-25T07:39:40;93100.81;;;13.36;66.97
36378;BME280;22402;42.746;23.606;2023-03-25T07:42:05;93105.81;;;13.54;66.80
36378;BME280;22402;42.746;23.606;2023-03-25T07:44:30;93110.81;;;13.72;66.45
36378;BME280;22402;42.746;23.606;2023-03-25T07:46:56;93110.09;;;13.86;65.96
36378;BME280;22402;42.746;23.606;2023-03-25T07:49:21;93103.91;;;14.02;65.29
36378;BME280;22402;42.746;23.606;2023-03-25T07:51:46;93095.47;;;14.15;65.72
36378;BME280;22402;42.746;23.606;2023-03-25T07:54:11;93106.47;;;14.33;66.00
36378;BME280;22402;42.746;23.606;2023-03-25T07:56:37;93106.50;;;14.56;65.95
36378;BME280;22402;42.746;23.606;2023-03-25T07:59:02;93102.84;;;14.80;64.93
36378;BME280;22402;42.746;23.606;2023-03-25T08:01:28;93093.56;;;15.08;65.07
36378;BME280;22402;42.746;23.606;2023-03-25T08:03:53;93081.47;;;15.36;63.52
36378;BME280;22402;42.746;23.606;2023-03-25T08:06:18;93075.28;;;15.59;62.38
36378;BME280;22402;42.746;23.606;2023-03-25T08:08:44;93073.63;;;15.87;62.26
36378;BME280;22402;42.746;23.606;2023-03-25T08:11:09;93074.34;;;16.17;62.04
36378;BME280;22402;42.746;23.606;2023-03-25T08:13:34;93076.66;;;16.49;60.30
36378;BME280;22402;42.746;23.606;2023-03-25T08:15:59;93062.94;;;16.75;59.81
36378;BME280;22402;42.746;23.606;2023-03-25T08:18:24;93078.75;;;17.03;57.84
36378;BME280;22402;42.746;23.606;2023-03-25T08:20:50;93064.63;;;17.11;56.42
36378;BME280;22402;42.746;23.606;2023-03-25T08:23:16;93067.63;;;17.42;57.79
36378;BME280;22402;42.746;23.606;2023-03-25T08:25:41;93071.41;;;17.68;56.25
36378;BME280;22402;42.746;23.606;2023-03-25T08:28:06;93068.28;;;17.92;55.45
36378;BME280;22402;42.746;23.606;2023-03-25T08:30:32;93066.75;;;18.18;53.81
36378;BME280;22402;42.746;23.606;2023-03-25T08:32:57;93065.16;;;18.43;53.93
36378;BME280;22402;42.746;23.606;2023-03-25T08:35:22;93059.91;;;18.70;52.38
36378;BME280;22402;42.746;23.606;2023-03-25T08:37:48;93065.22;;;18.97;52.68
36378;BME280;22402;42.746;23.606;2023-03-25T08:40:13;93055.00;;;19.27;51.63
36378;BME280;22402;42.746;23.606;2023-03-25T08:42:38;93060.63;;;19.57;50.49
36378;BME280;22402;42.746;23.606;2023-03-25T08:45:04;93054.03;;;19.86;49.27
36378;BME280;22402;42.746;23.606;2023-03-25T08:47:29;93043.94;;;20.15;47.18
36378;BME280;22402;42.746;23.606;2023-03-25T08:49:55;93042.38;;;20.39;47.55
36378;BME280;22402;42.746;23.606;2023-03-25T08:52:20;93045.72;;;20.59;45.61
36378;BME280;22402;42.746;23.606;2023-03-25T08:54:45;93044.59;;;20.74;43.65
36378;BME280;22402;42.746;23.606;2023-03-25T08:57:10;93044.13;;;20.83;44.29
36378;BME280;22402;42.746;23.606;2023-03-25T08:59:36;93046.50;;;20.91;43.56
36378;BME280;22402;42.746;23.606;2023-03-25T09:02:01;93044.06;;;20.90;42.93
36378;BME280;22402;42.746;23.606;2023-03-25T09:04:28;93040.66;;;20.83;43.51
36378;BME280;22402;42.746;23.606;2023-03-25T09:06:54;93040.78;;;20.88;42.60
36378;BME280;22402;42.746;23.606;2023-03-25T09:09:19;93029.91;;;20.78;42.50
36378;BME280;22402;42.746;23.606;2023-03-25T09:11:44;93031.03;;;20.88;41.86
36378;BME280;22402;42.746;23.606;2023-03-25T09:14:09;93032.38;;;20.98;41.92
36378;BME280;22402;42.746;23.606;2023-03-25T09:16:34;93023.66;;;21.15;41.53
36378;BME280;22402;42.746;23.606;2023-03-25T09:19:00;93018.31;;;21.41;40.61
36378;BME280;22402;42.746;23.606;2023-03-25T09:21:25;93026.34;;;21.52;40.61
36378;BME280;22402;42.746;23.606;2023-03-25T09:23:51;93018.72;;;21.63;41.41
36378;BME280;22402;42.746;23.606;2023-03-25T09:26:16;93014.53;;;21.85;41.25
36378;BME280;22402;42.746;23.606;2023-03-25T09:28:41;93010.50;;;22.13;39.94
36378;BME280;22402;42.746;23.606;2023-03-25T09:31:06;93010.97;;;22.40;38.33
36378;BME280;22402;42.746;23.606;2023-03-25T09:33:32;93003.53;;;22.72;38.76
36378;BME280;22402;42.746;23.606;2023-03-25T09:35:57;93001.41;;;23.04;36.64
36378;BME280;22402;42.746;23.606;2023-03-25T09:38:22;92995.28;;;23.27;35.61
36378;BME280;22402;42.746;23.606;2023-03-25T09:40:47;92997.91;;;23.39;35.99
36378;BME280;22402;42.746;23.606;2023-03-25T09:43:30;92994.41;;;23.62;36.66
36378;BME280;22402;42.746;23.606;2023-03-25T09:46:00;92982.53;;;23.93;34.28
36378;BME280;22402;42.746;23.606;2023-03-25T09:50:54;92978.19;;;24.16;34.20
36378;BME280;22402;42.746;23.606;2023-03-25T09:53:30;92975.06;;;24.36;34.79
36378;BME280;22402;42.746;23.606;2023-03-25T09:55:58;92979.91;;;24.39;34.13
36378;BME280;22402;42.746;23.606;2023-03-25T10:00:54;92969.94;;;24.46;33.77
36378;BME280;22402;42.746;23.606;2023-03-25T10:03:24;92964.97;;;24.66;34.13
36378;BME280;22402;42.746;23.606;2023-03-25T10:16:16;92959.31;;;25.52;31.79
36378;BME280;22402;42.746;23.606;2023-03-25T10:26:24;92944.25;;;25.46;31.86
36378;BME280;22402;42.746;23.606;2023-03-25T10:28:55;92936.63;;;25.33;32.35
36378;BME280;22402;42.746;23.606;2023-03-25T10:31:23;92927.28;;;25.13;32.35
36378;BME280;22402;42.746;23.606;2023-03-25T10:33:51;92929.06;;;24.91;32.94
36378;BME280;22402;42.746;23.606;2023-03-25T10:36:17;92925.69;;;24.78;33.85
36378;BME280;22402;42.746;23.606;2023-03-25T10:38:43;92927.56;;;24.61;32.90
36378;BME280;22402;42.746;23.606;2023-03-25T10:43:39;92916.44;;;24.36;33.33
36378;BME280;22402;42.746;23.606;2023-03-25T10:46:10;92909.03;;;24.38;34.49
36378;BME280;22402;42.746;23.606;2023-03-25T10:48:37;92903.03;;;24.42;34.89
36378;BME280;22402;42.746;23.606;2023-03-25T10:51:13;92899.94;;;24.50;35.32
36378;BME280;22402;42.746;23.606;2023-03-25T10:53:39;92898.25;;;24.61;33.68
36378;BME280;22402;42.746;23.606;2023-03-25T10:56:09;92899.44;;;24.53;33.91
36378;BME280;22402;42.746;23.606;2023-03-25T10:58:37;92891.31;;;24.60;35.24
36378;BME280;22402;42.746;23.606;2023-03-25T11:01:10;92893.34;;;24.92;35.41
36378;BME280;22402;42.746;23.606;2023-03-25T11:03:36;92882.69;;;25.31;32.60
36378;BME280;22402;42.746;23.606;2023-03-25T11:06:03;92888.59;;;25.55;34.12
36378;BME280;22402;42.746;23.606;2023-03-25T11:08:28;92886.59;;;25.89;34.16
36378;BME280;22402;42.746;23.606;2023-03-25T11:10:53;92878.91;;;26.25;31.93
36378;BME280;22402;42.746;23.606;2023-03-25T11:13:19;92874.34;;;26.52;32.10
36378;BME280;22402;42.746;23.606;2023-03-25T11:15:47;92884.41;;;26.72;32.16
36378;BME280;22402;42.746;23.606;2023-03-25T11:20:51;92867.66;;;26.50;31.86
36378;BME280;22402;42.746;23.606;2023-03-25T11:25:45;92860.69;;;26.17;31.38
36378;BME280;22402;42.746;23.606;2023-03-25T11:28:21;92866.47;;;26.08;31.98
36378;BME280;22402;42.746;23.606;2023-03-25T11:33:32;92859.66;;;25.68;32.40
36378;BME280;22402;42.746;23.606;2023-03-25T11:36:01;92849.53;;;25.43;32.09
36378;BME280;22402;42.746;23.606;2023-03-25T11:38:34;92840.63;;;25.16;33.52
36378;BME280;22402;42.746;23.606;2023-03-25T11:41:01;92844.34;;;24.93;33.77
36378;BME280;22402;42.746;23.606;2023-03-25T11:43:36;92838.63;;;24.67;32.79
36378;BME280;22402;42.746;23.606;2023-03-25T11:48:35;92833.06;;;24.35;31.81
36378;BME280;22402;42.746;23.606;2023-03-25T11:51:01;92833.72;;;24.25;32.35
36378;BME280;22402;42.746;23.606;2023-03-25T11:53:27;92833.16;;;24.23;32.50
36378;BME280;22402;42.746;23.606;2023-03-25T11:55:56;92813.78;;;24.45;32.70
36378;BME280;22402;42.746;23.606;2023-03-25T11:58:27;92814.31;;;25.02;32.47
36378;BME280;22402;42.746;23.606;2023-03-25T12:01:00;92819.56;;;25.63;29.95
36378;BME280;22402;42.746;23.606;2023-03-25T12:03:26;92813.91;;;26.14;30.10
36378;BME280;22402;42.746;23.606;2023-03-25T12:08:42;92809.94;;;26.96;29.72
36378;BME280;22402;42.746;23.606;2023-03-25T12:11:15;92802.75;;;27.02;28.06
36378;BME280;22402;42.746;23.606;2023-03-25T12:21:14;92792.19;;;26.37;29.65
36378;BME280;22402;42.746;23.606;2023-03-25T12:23:51;92782.63;;;26.09;30.37
36378;BME280;22402;42.746;23.606;2023-03-25T12:26:21;92791.50;;;25.83;30.88
36378;BME280;22402;42.746;23.606;2023-03-25T12:33:49;92787.28;;;25.16;32.73
36378;BME280;22402;42.746;23.606;2023-03-25T12:36:21;92781.66;;;24.90;32.40
36378;BME280;22402;42.746;23.606;2023-03-25T12:59:56;92777.88;;;23.06;35.12
36378;BME280;22402;42.746;23.606;2023-03-25T13:02:30;92778.25;;;22.86;35.04
36378;BME280;22402;42.746;23.606;2023-03-25T13:05:03;92774.69;;;22.68;35.27
36378;BME280;22402;42.746;23.606;2023-03-25T13:07:41;92762.84;;;22.47;35.86
36378;BME280;22402;42.746;23.606;2023-03-25T13:10:13;92785.00;;;22.41;36.64
36378;BME280;22402;42.746;23.606;2023-03-25T13:13:01;92772.09;;;22.33;37.00
36378;BME280;22402;42.746;23.606;2023-03-25T13:18:00;92762.19;;;22.17;34.86
36378;BME280;22402;42.746;23.606;2023-03-25T13:20:28;92761.44;;;22.10;33.67
36378;BME280;22402;42.746;23.606;2023-03-25T13:22:58;92767.66;;;22.03;33.20
36378;BME280;22402;42.746;23.606;2023-03-25T13:25:34;92762.25;;;21.98;33.26
36378;BME280;22402;42.746;23.606;2023-03-25T13:28:06;92760.06;;;21.95;34.16
36378;BME280;22402;42.746;23.606;2023-03-25T13:30:36;92759.47;;;21.93;35.35
36378;BME280;22402;42.746;23.606;2023-03-25T13:33:06;92758.69;;;21.93;35.24
36378;BME280;22402;42.746;23.606;2023-03-25T13:35:42;92770.31;;;21.92;34.26
36378;BME280;22402;42.746;23.606;2023-03-25T13:38:11;92770.78;;;21.89;35.46
36378;BME280;22402;42.746;23.606;2023-03-25T13:40:42;92772.50;;;21.83;36.10
36378;BME280;22402;42.746;23.606;2023-03-25T13:50:36;92781.34;;;21.35;35.39
36378;BME280;22402;42.746;23.606;2023-03-25T13:53:03;92781.31;;;21.23;36.07
36378;BME280;22402;42.746;23.606;2023-03-25T13:55:34;92784.63;;;21.07;36.84
36378;BME280;22402;42.746;23.606;2023-03-25T14:05:51;92796.16;;;20.20;37.12
36378;BME280;22402;42.746;23.606;2023-03-25T14:10:48;92801.31;;;19.90;39.24
36378;BME280;22402;42.746;23.606;2023-03-25T14:13:20;92796.72;;;19.79;40.33
36378;BME280;22402;42.746;23.606;2023-03-25T14:16:10;92815.72;;;19.69;40.98
36378;BME280;22402;42.746;23.606;2023-03-25T14:18:55;92814.16;;;19.55;43.40
36378;BME280;22402;42.746;23.606;2023-03-25T14:24:12;92823.25;;;19.27;43.36
36378;BME280;22402;42.746;23.606;2023-03-25T14:26:41;92821.50;;;19.15;44.38
36378;BME280;22402;42.746;23.606;2023-03-25T14:29:08;92823.41;;;19.01;44.07
36378;BME280;22402;42.746;23.606;2023-03-25T14:31:34;92825.06;;;18.88;44.58
36378;BME280;22402;42.746;23.606;2023-03-25T14:37:08;92832.06;;;18.63;44.59
36378;BME280;22402;42.746;23.606;2023-03-25T14:44:34;92839.44;;;18.28;46.20
36378;BME280;22402;42.746;23.606;2023-03-25T14:49:47;92834.19;;;18.08;46.93
36378;BME280;22402;42.746;23.606;2023-03-25T14:52:13;92841.72;;;17.97;47.42
36378;BME280;22402;42.746;23.606;2023-03-25T14:54:39;92842.31;;;17.86;47.85
36378;BME280;22402;42.746;23.606;2023-03-25T14:57:14;92839.88;;;17.78;48.73
36378;BME280;22402;42.746;23.606;2023-03-25T14:59:44;92833.34;;;17.67;50.54
36378;BME280;22402;42.746;23.606;2023-03-25T15:04:37;92834.13;;;17.48;54.63
36378;BME280;22402;42.746;23.606;2023-03-25T15:07:04;92813.06;;;17.41;56.40
36378;BME280;22402;42.746;23.606;2023-03-25T15:09:41;92785.06;;;17.27;57.72
36378;BME280;22402;42.746;23.606;2023-03-25T15:12:10;92784.66;;;17.17;57.92
36378;BME280;22402;42.746;23.606;2023-03-25T15:14:38;92787.25;;;17.10;60.03